createdAt,value
2022-07-25T00:00:12.907Z,85.13
2022-07-25T00:02:39.867Z,85.36
2022-07-25T00:05:06.690Z,85.95
2022-07-25T00:07:33.117Z,86.09
2022-07-25T00:09:59.575Z,86.48
2022-07-25T00:12:26.083Z,87.28
2022-07-25T00:14:52.683Z,87.20
2022-07-25T00:17:19.123Z,87.88
2022-07-25T00:19:45.582Z,88.82
2022-07-25T00:22:12.031Z,89.41
2022-07-25T00:24:38.520Z,90.30
2022-07-25T00:27:05.203Z,90.97
2022-07-25T00:29:31.660Z,91.12
2022-07-25T00:31:58.085Z,91.87
2022-07-25T00:34:24.527Z,92.52
2022-07-25T00:36:51.065Z,92.58
2022-07-25T00:39:17.563Z,93.44
2022-07-25T00:41:44.472Z,94.07
2022-07-25T00:44:24.179Z,96.74
2022-07-25T00:46:51.943Z,95.16
2022-07-25T00:49:18.564Z,95.51
2022-07-25T00:51:45.973Z,95.24
2022-07-25T00:54:12.835Z,95.26
2022-07-25T00:56:40.183Z,95.07
2022-07-25T00:59:07.065Z,95.59
2022-07-25T01:01:33.596Z,95.75
2022-07-25T01:04:00.231Z,96.47
2022-07-25T01:06:27.010Z,96.39
2022-07-25T01:08:54.201Z,96.65
2022-07-25T01:11:22.517Z,96.90
2022-07-25T01:13:49.165Z,96.68
2022-07-25T01:16:15.808Z,97.20
2022-07-25T01:18:42.250Z,97.22
2022-07-25T01:21:09.051Z,97.59
2022-07-25T01:23:35.716Z,97.64
2022-07-25T01:26:02.185Z,97.67
2022-07-25T01:28:28.655Z,98.19
2022-07-25T01:30:55.196Z,98.06
2022-07-25T01:33:22.361Z,98.79
2022-07-25T01:35:49.885Z,99.42
2022-07-25T01:38:16.960Z,100.00
2022-07-25T01:40:44.268Z,100.00
2022-07-25T01:43:11.698Z,100.00
2022-07-25T01:45:38.235Z,100.00
2022-07-25T01:48:04.781Z,100.00
2022-07-25T01:50:31.260Z,100.00
2022-07-25T01:52:57.753Z,100.00
2022-07-25T01:55:24.336Z,100.00
2022-07-25T01:57:51.806Z,100.00
2022-07-25T02:00:18.767Z,100.00
2022-07-25T02:02:45.375Z,100.00
2022-07-25T02:05:13.445Z,100.00
2022-07-25T02:07:39.890Z,100.00
2022-07-25T02:10:07.538Z,100.00
2022-07-25T02:12:34.005Z,100.00
2022-07-25T02:15:00.415Z,100.00
2022-07-25T02:17:26.936Z,100.00
2022-07-25T02:19:53.483Z,100.00
2022-07-25T02:22:19.921Z,100.00
2022-07-25T02:24:46.465Z,100.00
2022-07-25T02:27:12.927Z,100.00
2022-07-25T02:29:39.376Z,100.00
2022-07-25T02:32:06.174Z,100.00
2022-07-25T02:34:32.641Z,100.00
2022-07-25T02:36:59.105Z,100.00
2022-07-25T02:39:25.545Z,100.00
2022-07-25T02:41:52.013Z,100.00
2022-07-25T02:44:18.420Z,100.00
2022-07-25T02:46:44.856Z,100.00
2022-07-25T02:49:12.991Z,100.00
2022-07-25T02:51:39.525Z,100.00
2022-07-25T02:54:05.960Z,100.00
2022-07-25T02:56:33.199Z,100.00
2022-07-25T02:58:59.746Z,100.00
2022-07-25T03:01:26.326Z,100.00
2022-07-25T03:03:52.856Z,100.00
2022-07-25T03:06:19.356Z,100.00
2022-07-25T03:08:45.862Z,100.00
2022-07-25T03:11:13.706Z,100.00
2022-07-25T03:13:40.122Z,100.00
2022-07-25T03:16:06.943Z,100.00
2022-07-25T03:18:33.412Z,100.00
2022-07-25T03:20:59.918Z,100.00
2022-07-25T03:23:28.184Z,100.00
2022-07-25T03:25:55.576Z,100.00
2022-07-25T03:28:22.042Z,100.00
2022-07-25T03:30:48.472Z,100.00
2022-07-25T03:33:14.981Z,100.00
2022-07-25T03:35:41.534Z,100.00
2022-07-25T03:38:07.951Z,100.00
2022-07-25T03:40:34.391Z,100.00
2022-07-25T03:43:00.769Z,100.00
2022-07-25T03:45:27.200Z,100.00
2022-07-25T03:47:53.587Z,100.00
2022-07-25T03:50:20.152Z,100.00
2022-07-25T03:52:46.587Z,100.00
2022-07-25T03:55:13.144Z,100.00
2022-07-25T03:57:39.871Z,100.00
2022-07-25T04:00:07.873Z,100.00
2022-07-25T04:02:34.795Z,100.00
2022-07-25T04:05:01.405Z,100.00
2022-07-25T04:07:27.873Z,100.00
2022-07-25T04:09:54.324Z,100.00
2022-07-25T04:12:20.696Z,100.00
2022-07-25T04:14:47.159Z,100.00
2022-07-25T04:17:14.656Z,100.00
2022-07-25T04:19:41.202Z,100.00
2022-07-25T04:22:07.769Z,100.00
2022-07-25T04:24:34.257Z,100.00
2022-07-25T04:27:00.739Z,100.00
2022-07-25T04:29:27.402Z,100.00
2022-07-25T04:31:53.855Z,100.00
2022-07-25T04:34:20.654Z,100.00
2022-07-25T04:36:47.133Z,100.00
2022-07-25T04:39:13.525Z,100.00
2022-07-25T04:41:39.960Z,100.00
2022-07-25T04:44:08.358Z,100.00
2022-07-25T04:46:35.110Z,100.00
2022-07-25T04:49:01.729Z,100.00
2022-07-25T04:51:28.247Z,100.00
2022-07-25T04:53:54.606Z,100.00
2022-07-25T04:56:21.124Z,100.00
2022-07-25T04:58:47.594Z,100.00
2022-07-25T05:01:14.110Z,100.00
2022-07-25T05:03:40.781Z,100.00
2022-07-25T05:06:16.320Z,100.00
2022-07-25T05:08:43.380Z,100.00
2022-07-25T05:11:09.964Z,100.00
2022-07-25T05:13:36.442Z,100.00
2022-07-25T05:16:03.187Z,100.00
2022-07-25T05:18:29.778Z,100.00
2022-07-25T05:20:56.488Z,100.00
2022-07-25T05:23:22.905Z,100.00
2022-07-25T05:25:49.406Z,100.00
2022-07-25T05:28:17.514Z,100.00
2022-07-25T05:30:44.044Z,100.00
2022-07-25T05:33:10.517Z,100.00
2022-07-25T05:35:37.300Z,100.00
2022-07-25T05:38:04.381Z,100.00
2022-07-25T05:40:30.928Z,100.00
2022-07-25T05:43:02.588Z,100.00
2022-07-25T05:45:30.106Z,100.00
2022-07-25T05:47:56.631Z,100.00
2022-07-25T05:50:23.121Z,100.00
2022-07-25T05:52:49.524Z,100.00
2022-07-25T05:55:16.163Z,100.00
2022-07-25T05:57:42.686Z,100.00
2022-07-25T06:00:09.700Z,100.00
2022-07-25T06:02:36.327Z,100.00
2022-07-25T06:05:02.911Z,100.00
2022-07-25T06:07:29.345Z,100.00
2022-07-25T06:09:55.805Z,100.00
2022-07-25T06:12:24.325Z,100.00
2022-07-25T06:14:51.099Z,100.00
2022-07-25T06:17:17.545Z,100.00
2022-07-25T06:19:43.973Z,100.00
2022-07-25T06:22:11.357Z,100.00
2022-07-25T06:24:38.177Z,100.00
2022-07-25T06:27:05.135Z,100.00
2022-07-25T06:29:31.581Z,100.00
2022-07-25T06:31:58.093Z,100.00
2022-07-25T06:34:28.544Z,100.00
2022-07-25T06:36:55.362Z,100.00
2022-07-25T06:39:21.771Z,100.00
2022-07-25T06:41:48.333Z,100.00
2022-07-25T06:44:14.976Z,99.92
2022-07-25T06:46:41.526Z,97.71
2022-07-25T06:49:08.283Z,97.08
2022-07-25T06:51:34.907Z,95.93
2022-07-25T06:54:01.363Z,94.63
2022-07-25T06:56:31.425Z,92.27
2022-07-25T06:58:59.004Z,90.50
2022-07-25T07:01:25.593Z,89.31
2022-07-25T07:03:52.173Z,87.47
2022-07-25T07:06:18.654Z,85.10
2022-07-25T07:08:45.050Z,83.81
2022-07-25T07:11:15.202Z,82.68
2022-07-25T07:13:41.685Z,80.27
2022-07-25T07:16:08.316Z,78.60
2022-07-25T07:18:36.828Z,73.64
2022-07-25T07:21:04.286Z,71.87
2022-07-25T07:23:30.729Z,71.82
2022-07-25T07:25:59.068Z,69.69
2022-07-25T07:28:25.500Z,67.20
2022-07-25T07:31:15.277Z,64.56
2022-07-25T07:33:38.383Z,63.14
2022-07-25T07:36:05.005Z,62.18
2022-07-25T07:38:31.489Z,60.95
2022-07-25T07:40:57.930Z,59.89
2022-07-25T07:43:29.716Z,58.55
2022-07-25T07:46:00.629Z,57.25
2022-07-25T07:48:28.592Z,56.29
2022-07-25T07:50:55.073Z,54.82
2022-07-25T07:53:21.561Z,54.17
2022-07-25T07:55:55.295Z,53.36
2022-07-25T07:58:21.956Z,53.67
2022-07-25T08:00:51.490Z,52.96
2022-07-25T08:03:20.551Z,53.29
2022-07-25T08:05:48.787Z,52.42
2022-07-25T08:08:15.910Z,52.03
2022-07-25T08:10:47.799Z,52.05
2022-07-25T08:13:23.128Z,50.15
2022-07-25T08:15:56.036Z,50.00
2022-07-25T08:18:22.536Z,51.10
2022-07-25T08:20:50.525Z,50.83
2022-07-25T08:23:17.606Z,51.10
2022-07-25T08:25:44.783Z,51.26
2022-07-25T08:28:11.321Z,50.81
2022-07-25T08:30:39.088Z,50.50
2022-07-25T08:33:07.999Z,50.05
2022-07-25T08:35:34.874Z,49.97
2022-07-25T08:38:02.206Z,49.57
2022-07-25T08:40:30.429Z,48.82
2022-07-25T08:42:58.396Z,48.80
2022-07-25T08:45:26.646Z,48.84
2022-07-25T08:47:54.598Z,48.59
2022-07-25T08:50:27.188Z,48.30
2022-07-25T08:53:09.965Z,48.18
2022-07-25T08:55:42.374Z,48.07
2022-07-25T08:58:11.316Z,48.03
2022-07-25T09:00:38.162Z,47.68
2022-07-25T09:03:08.641Z,47.49
2022-07-25T09:05:36.783Z,47.91
2022-07-25T09:08:15.007Z,46.83
2022-07-25T09:10:49.645Z,47.42
2022-07-25T09:13:18.235Z,47.18
2022-07-25T09:15:50.362Z,46.15
2022-07-25T09:18:23.611Z,46.40
2022-07-25T09:20:58.610Z,45.46
2022-07-25T09:23:29.579Z,46.27
2022-07-25T09:26:12.775Z,45.16
2022-07-25T09:28:44.937Z,45.54
2022-07-25T09:31:12.446Z,45.41
2022-07-25T09:33:59.046Z,44.68
2022-07-25T09:36:25.575Z,46.03
2022-07-25T09:38:56.759Z,45.57
2022-07-25T09:41:36.982Z,45.44
2022-07-25T09:44:05.149Z,45.81
2022-07-25T09:46:32.976Z,45.63
2022-07-25T09:49:01.121Z,45.98
2022-07-25T09:51:29.049Z,45.95
2022-07-25T09:53:55.836Z,46.28
2022-07-25T09:56:22.270Z,45.86
2022-07-25T09:58:48.908Z,46.26
2022-07-25T10:01:25.237Z,45.61
2022-07-25T10:04:01.754Z,45.38
2022-07-25T10:06:39.993Z,44.27
2022-07-25T10:09:13.692Z,44.22
2022-07-25T10:11:40.418Z,44.61
2022-07-25T10:14:13.127Z,42.07
2022-07-25T10:16:47.263Z,42.06
2022-07-25T10:19:14.081Z,42.95
2022-07-25T10:21:40.980Z,42.95
2022-07-25T10:24:10.292Z,42.52
2022-07-25T10:26:39.780Z,42.57
2022-07-25T10:29:10.945Z,42.12
2022-07-25T10:31:50.397Z,41.72
2022-07-25T10:34:29.042Z,41.53
2022-07-25T10:36:57.162Z,41.60
2022-07-25T10:39:24.032Z,41.51
2022-07-25T10:41:54.073Z,41.13
2022-07-25T10:44:21.036Z,41.95
2022-07-25T10:46:48.510Z,42.44
2022-07-25T10:49:31.670Z,41.88
2022-07-25T10:52:04.178Z,42.29
2022-07-25T10:54:38.940Z,43.39
2022-07-25T10:57:13.552Z,44.30
2022-07-25T10:59:40.692Z,46.05
2022-07-25T11:02:09.595Z,46.47
2022-07-25T11:04:36.728Z,47.02
2022-07-25T11:07:17.882Z,46.18
2022-07-25T11:09:45.130Z,46.36
2022-07-25T11:12:16.306Z,45.16
2022-07-25T11:14:43.475Z,45.12
2022-07-25T11:17:29.660Z,45.01
2022-07-25T11:20:06.121Z,43.72
2022-07-25T11:22:34.443Z,44.19
2022-07-25T11:25:02.308Z,43.39
2022-07-25T11:27:33.619Z,44.40
2022-07-25T11:30:11.410Z,46.08
2022-07-25T11:32:43.735Z,48.94
2022-07-25T11:35:11.352Z,47.36
2022-07-25T11:37:40.549Z,46.88
2022-07-25T11:40:08.672Z,48.32
2022-07-25T11:42:44.281Z,50.60
2022-07-25T11:45:23.090Z,49.63
2022-07-25T11:48:14.136Z,50.56
2022-07-25T11:50:42.971Z,47.72
2022-07-25T11:53:12.565Z,48.60
2022-07-25T11:55:40.875Z,48.66
2022-07-25T11:58:08.220Z,49.12
2022-07-25T12:00:38.875Z,48.93
2022-07-25T12:03:13.036Z,48.60
2022-07-25T12:05:42.158Z,48.53
2022-07-25T12:08:14.000Z,48.14
2022-07-25T12:10:41.275Z,48.71
2022-07-25T12:13:10.156Z,49.13
2022-07-25T12:15:38.940Z,48.97
2022-07-25T12:18:06.565Z,47.76
2022-07-25T12:20:36.229Z,47.41
2022-07-25T12:23:05.023Z,46.96
2022-07-25T12:25:33.304Z,45.87
2022-07-25T12:28:00.801Z,45.48
2022-07-25T12:30:29.479Z,45.27
2022-07-25T12:32:57.473Z,43.99
2022-07-25T12:35:24.339Z,43.96
2022-07-25T12:37:51.951Z,43.05
2022-07-25T12:40:18.599Z,42.67
2022-07-25T12:42:45.632Z,41.74
2022-07-25T12:45:13.805Z,41.23
2022-07-25T12:47:40.460Z,41.83
2022-07-25T12:50:07.216Z,43.53
2022-07-25T12:52:34.175Z,45.11
2022-07-25T12:55:00.704Z,45.48
2022-07-25T12:57:27.192Z,45.80
2022-07-25T12:59:53.626Z,45.59
2022-07-25T13:02:20.127Z,45.86
2022-07-25T13:04:46.612Z,46.44
2022-07-25T13:07:13.630Z,47.12
2022-07-25T13:09:40.032Z,46.53
2022-07-25T13:12:06.811Z,46.31
2022-07-25T13:14:33.270Z,46.54
2022-07-25T13:16:59.769Z,47.26
2022-07-25T13:19:26.418Z,48.10
2022-07-25T13:21:52.836Z,48.57
2022-07-25T13:24:19.347Z,49.44
2022-07-25T13:26:46.233Z,50.69
2022-07-25T13:29:12.817Z,52.10
2022-07-25T13:31:41.003Z,52.92
2022-07-25T13:34:08.952Z,53.67
2022-07-25T13:36:38.017Z,54.55
2022-07-25T13:39:06.066Z,54.77
2022-07-25T13:41:32.767Z,54.66
2022-07-25T13:43:59.227Z,55.93
2022-07-25T13:46:25.832Z,56.08
2022-07-25T13:48:53.207Z,55.71
2022-07-25T13:51:19.779Z,54.58
2022-07-25T13:53:46.260Z,54.56
2022-07-25T13:56:13.483Z,53.83
2022-07-25T13:58:40.733Z,53.62
2022-07-25T14:01:08.697Z,53.00
2022-07-25T14:03:36.729Z,52.16
2022-07-25T14:06:04.614Z,51.73
2022-07-25T14:08:31.508Z,51.49
2022-07-25T14:10:58.166Z,51.81
2022-07-25T14:13:24.671Z,51.64
2022-07-25T14:15:51.447Z,51.76
2022-07-25T14:18:18.170Z,51.66
2022-07-25T14:20:44.694Z,51.07
2022-07-25T14:23:11.118Z,51.16
2022-07-25T14:25:38.452Z,49.60
2022-07-25T14:28:04.986Z,49.29
2022-07-25T14:30:31.527Z,48.11
2022-07-25T14:32:57.929Z,46.83
2022-07-25T14:35:27.513Z,46.45
2022-07-25T14:37:58.384Z,46.10
2022-07-25T14:40:24.862Z,46.16
2022-07-25T14:42:51.341Z,45.42
2022-07-25T14:45:18.856Z,44.82
2022-07-25T14:47:45.314Z,44.69
2022-07-25T14:50:11.792Z,44.32
2022-07-25T14:52:38.239Z,43.45
2022-07-25T14:55:05.353Z,43.76
2022-07-25T14:57:31.898Z,43.84
2022-07-25T14:59:58.411Z,43.37
2022-07-25T15:02:24.884Z,43.48
2022-07-25T15:04:51.356Z,42.79
2022-07-25T15:07:17.792Z,41.64
2022-07-25T15:09:44.217Z,40.99
2022-07-25T15:12:16.158Z,40.32
2022-07-25T15:14:43.302Z,39.82
2022-07-25T15:17:09.740Z,39.65
2022-07-25T15:19:36.154Z,39.90
2022-07-25T15:22:03.381Z,40.01
2022-07-25T15:24:29.867Z,40.08
2022-07-25T15:26:57.401Z,40.06
2022-07-25T15:29:23.932Z,40.42
2022-07-25T15:31:50.940Z,40.48
2022-07-25T15:34:17.497Z,40.61
2022-07-25T15:36:44.073Z,40.84
2022-07-25T15:39:10.937Z,41.54
2022-07-25T15:41:37.618Z,41.91
2022-07-25T15:44:04.463Z,41.66
2022-07-25T15:46:31.121Z,41.92
2022-07-25T15:48:58.055Z,42.18
2022-07-25T15:51:24.832Z,42.01
2022-07-25T15:53:51.292Z,41.79
2022-07-25T15:56:17.790Z,42.04
2022-07-25T15:58:44.587Z,41.87
2022-07-25T16:01:11.236Z,43.23
2022-07-25T16:03:37.877Z,43.61
2022-07-25T16:06:04.557Z,44.52
2022-07-25T16:08:31.138Z,45.87
2022-07-25T16:10:58.619Z,47.75
2022-07-25T16:13:26.088Z,49.62
2022-07-25T16:15:52.768Z,50.78
2022-07-25T16:18:19.250Z,52.46
2022-07-25T16:20:45.687Z,54.00
2022-07-25T16:23:12.133Z,54.65
2022-07-25T16:25:38.564Z,55.54
2022-07-25T16:28:06.436Z,56.22
2022-07-25T16:30:33.080Z,56.94
2022-07-25T16:32:59.610Z,57.19
2022-07-25T16:35:26.043Z,57.28
2022-07-25T16:37:52.817Z,58.04
2022-07-25T16:40:19.242Z,58.02
2022-07-25T16:42:49.305Z,57.74
2022-07-25T16:45:15.813Z,58.62
2022-07-25T16:47:43.900Z,58.56
2022-07-25T16:50:10.347Z,58.94
2022-07-25T16:52:36.920Z,59.43
2022-07-25T16:55:03.893Z,59.88
2022-07-25T16:57:31.263Z,60.45
2022-07-25T16:59:57.822Z,60.59
2022-07-25T17:02:29.313Z,60.95
2022-07-25T17:04:56.548Z,60.80
2022-07-25T17:07:23.402Z,61.05
2022-07-25T17:09:50.039Z,61.28
2022-07-25T17:12:17.453Z,61.13
2022-07-25T17:14:44.905Z,61.44
2022-07-25T17:17:11.417Z,61.38
2022-07-25T17:19:39.934Z,61.48
2022-07-25T17:22:07.505Z,61.67
2022-07-25T17:24:34.118Z,61.59
2022-07-25T17:27:01.270Z,62.15
2022-07-25T17:29:27.798Z,61.14
2022-07-25T17:31:54.249Z,60.69
2022-07-25T17:34:21.773Z,60.59
2022-07-25T17:36:48.373Z,59.95
2022-07-25T17:39:14.858Z,59.40
2022-07-25T17:41:41.295Z,58.95
2022-07-25T17:44:11.984Z,58.14
2022-07-25T17:46:38.989Z,56.77
2022-07-25T17:49:05.555Z,54.62
2022-07-25T17:51:32.056Z,53.61
2022-07-25T17:53:58.487Z,53.10
2022-07-25T17:56:25.002Z,52.30
2022-07-25T17:58:51.441Z,51.31
2022-07-25T18:01:17.959Z,50.63
2022-07-25T18:03:47.449Z,50.44
2022-07-25T18:06:14.412Z,50.64
2022-07-25T18:08:40.984Z,50.43
2022-07-25T18:11:07.480Z,50.85
2022-07-25T18:13:34.719Z,50.98
2022-07-25T18:16:01.213Z,50.47
2022-07-25T18:18:27.798Z,50.03
2022-07-25T18:20:54.263Z,49.63
2022-07-25T18:23:20.752Z,49.35
2022-07-25T18:25:47.258Z,49.48
2022-07-25T18:28:14.081Z,49.50
2022-07-25T18:30:40.556Z,50.00
2022-07-25T18:33:07.712Z,50.02
2022-07-25T18:35:34.599Z,50.36
2022-07-25T18:38:01.801Z,50.63
2022-07-25T18:40:28.607Z,50.66
2022-07-25T18:42:55.131Z,50.88
2022-07-25T18:45:22.177Z,51.61
2022-07-25T18:47:50.480Z,51.71
2022-07-25T18:50:19.785Z,52.20
2022-07-25T18:52:46.761Z,52.28
2022-07-25T18:55:13.209Z,52.16
2022-07-25T18:57:39.645Z,52.62
2022-07-25T19:00:08.166Z,52.66
2022-07-25T19:02:34.821Z,52.71
2022-07-25T19:05:01.805Z,52.75
2022-07-25T19:07:29.816Z,53.85
2022-07-25T19:09:56.238Z,54.34
2022-07-25T19:12:26.395Z,54.84
2022-07-25T19:14:56.301Z,55.76
2022-07-25T19:17:23.846Z,55.93
2022-07-25T19:19:51.597Z,56.74
2022-07-25T19:22:18.148Z,57.41
2022-07-25T19:24:44.577Z,57.96
2022-07-25T19:27:11.378Z,58.54
2022-07-25T19:29:38.077Z,59.15
2022-07-25T19:32:04.927Z,59.78
2022-07-25T19:34:31.345Z,60.18
2022-07-25T19:36:57.792Z,60.86
2022-07-25T19:39:24.717Z,61.20
2022-07-25T19:41:54.052Z,61.93
2022-07-25T19:44:20.861Z,62.36
2022-07-25T19:46:48.939Z,62.89
2022-07-25T19:49:15.813Z,63.44
2022-07-25T19:51:42.295Z,64.41
2022-07-25T19:54:09.654Z,64.87
2022-07-25T19:56:36.565Z,65.38
2022-07-25T19:59:03.566Z,66.00
2022-07-25T20:01:31.576Z,66.45
2022-07-25T20:03:58.099Z,66.96
2022-07-25T20:06:24.759Z,66.86
2022-07-25T20:08:51.174Z,67.22
2022-07-25T20:11:17.690Z,67.97
2022-07-25T20:13:44.174Z,68.54
2022-07-25T20:16:10.676Z,68.98
2022-07-25T20:18:38.466Z,69.96
2022-07-25T20:21:05.332Z,70.19
2022-07-25T20:23:32.004Z,70.96
2022-07-25T20:25:58.581Z,72.44
2022-07-25T20:28:25.007Z,73.22
2022-07-25T20:30:51.498Z,74.07
2022-07-25T20:33:18.259Z,75.37
2022-07-25T20:35:45.198Z,76.29
2022-07-25T20:38:11.610Z,77.96
2022-07-25T20:40:46.424Z,79.01
2022-07-25T20:43:14.952Z,79.80
2022-07-25T20:45:41.444Z,81.10
2022-07-25T20:48:07.990Z,82.71
2022-07-25T20:50:37.158Z,83.17
2022-07-25T20:53:05.127Z,84.68
2022-07-25T20:55:31.839Z,84.98
2022-07-25T20:57:59.395Z,86.97
2022-07-25T21:00:27.687Z,88.86
2022-07-25T21:02:54.663Z,89.04
2022-07-25T21:05:22.180Z,90.06
2022-07-25T21:07:48.618Z,91.19
2022-07-25T21:10:15.253Z,92.28
2022-07-25T21:12:42.119Z,93.45
2022-07-25T21:15:09.072Z,93.41
2022-07-25T21:17:35.680Z,94.43
2022-07-25T21:20:02.120Z,95.15
2022-07-25T21:22:28.547Z,95.84
2022-07-25T21:24:55.292Z,96.73
2022-07-25T21:27:22.061Z,97.49
2022-07-25T21:29:48.740Z,98.16
2022-07-25T21:32:15.865Z,98.49
2022-07-25T21:34:44.282Z,98.51
2022-07-25T21:37:10.888Z,98.79
2022-07-25T21:39:37.873Z,99.10
2022-07-25T21:42:05.148Z,98.90
2022-07-25T21:44:31.780Z,99.08
2022-07-25T21:46:58.222Z,100.00
2022-07-25T21:49:43.264Z,100.00
2022-07-25T21:52:13.626Z,100.00
2022-07-25T21:54:41.632Z,100.00
2022-07-25T21:57:13.057Z,100.00
2022-07-25T21:59:42.223Z,100.00
2022-07-25T22:02:09.118Z,100.00
2022-07-25T22:04:35.688Z,100.00
2022-07-25T22:07:02.317Z,100.00
2022-07-25T22:09:28.952Z,100.00
2022-07-25T22:11:56.682Z,100.00
2022-07-25T22:14:23.412Z,100.00
2022-07-25T22:16:49.936Z,100.00
2022-07-25T22:19:19.749Z,100.00
2022-07-25T22:21:48.478Z,100.00
2022-07-25T22:24:14.889Z,100.00
2022-07-25T22:26:41.441Z,100.00
2022-07-25T22:29:08.240Z,100.00
2022-07-25T22:31:34.971Z,100.00
2022-07-25T22:34:01.392Z,100.00
2022-07-25T22:36:27.794Z,100.00
2022-07-25T22:38:54.259Z,100.00
2022-07-25T22:41:20.717Z,100.00
2022-07-25T22:43:58.619Z,100.00
2022-07-25T22:46:26.432Z,100.00
2022-07-25T22:48:53.272Z,100.00
2022-07-25T22:51:19.777Z,100.00
2022-07-25T22:53:46.377Z,100.00
2022-07-25T22:56:12.866Z,100.00
2022-07-25T22:58:39.269Z,100.00
2022-07-25T23:01:05.801Z,100.00
2022-07-25T23:03:33.258Z,100.00
2022-07-25T23:05:59.967Z,100.00
2022-07-25T23:08:26.377Z,100.00
2022-07-25T23:10:52.811Z,100.00
2022-07-25T23:13:19.523Z,100.00
2022-07-25T23:15:49.960Z,100.00
2022-07-25T23:18:17.950Z,100.00
2022-07-25T23:20:44.372Z,100.00
2022-07-25T23:23:10.949Z,100.00
2022-07-25T23:25:37.379Z,100.00
2022-07-25T23:28:04.042Z,100.00
2022-07-25T23:30:30.469Z,100.00
2022-07-25T23:32:56.972Z,100.00
2022-07-25T23:35:23.567Z,100.00
2022-07-25T23:37:49.976Z,100.00
2022-07-25T23:40:16.475Z,100.00
2022-07-25T23:42:43.196Z,100.00
2022-07-25T23:45:10.509Z,100.00
2022-07-25T23:47:39.582Z,100.00
2022-07-25T23:50:08.217Z,100.00
2022-07-25T23:52:34.628Z,100.00
2022-07-25T23:55:01.056Z,100.00
2022-07-25T23:57:27.490Z,100.00
2022-07-25T23:59:53.869Z,100.00
